Time;durP1;ratioP1;P1;durP2;ratioP2;P2;SDS_P1;SDS_P2;PMS_P1;PMS_P2;Temp;Humidity;BMP_temperature;BMP_pressure;BME280_temperature;BME280_humidity;BME280_pressure;Samples;Min_cycle;Max_cycle;Signal;HPM_P1;HPM_P2
2022/01/08 06:00:48;;;;;;;1.10;0.45;;;3.90;99.90;;;;;;5714556;23;20436;-81
2022/01/08 06:03:16;;;;;;;1.48;0.40;;;3.90;99.90;;;;;;4943177;29;20052;-85
2022/01/08 06:05:44;;;;;;;0.93;0.50;;;3.80;99.90;;;;;;4953803;28;20130;-88
2022/01/08 06:08:11;;;;;;;1.00;0.40;;;3.80;99.90;;;;;;4930369;29;20058;-85
2022/01/08 06:10:38;;;;;;;1.40;0.50;;;3.80;99.90;;;;;;4931433;29;20050;-89
2022/01/08 06:13:05;;;;;;;0.95;0.40;;;3.80;99.90;;;;;;4949139;29;20144;-88
2022/01/08 06:15:32;;;;;;;1.42;0.40;;;3.70;99.90;;;;;;4947005;29;20094;-82
2022/01/08 06:18:01;;;;;;;0.63;0.28;;;3.70;99.90;;;;;;4957197;29;20058;-84
2022/01/08 06:20:28;;;;;;;0.32;0.20;;;3.70;99.90;;;;;;4953279;29;20143;-87
2022/01/08 06:22:55;;;;;;;1.45;0.40;;;3.60;99.90;;;;;;4961546;29;20043;-88
2022/01/08 06:25:29;;;;;;;0.22;0.20;;;3.60;99.90;;;;;;4960091;28;20051;-88
2022/01/08 06:28:05;;;;;;;0.95;0.38;;;3.50;99.90;;;;;;4945866;29;20137;-86
2022/01/08 06:30:35;;;;;;;0.30;0.20;;;3.50;99.90;;;;;;4933542;29;20056;-91
2022/01/08 06:33:14;;;;;;;0.38;0.20;;;3.50;99.90;;;;;;4956665;29;20056;-83
2022/01/08 06:35:42;;;;;;;0.90;0.20;;;3.40;99.90;;;;;;4948341;29;20051;-83
2022/01/08 06:38:10;;;;;;;0.93;0.30;;;3.30;99.90;;;;;;4948709;29;20067;-82
2022/01/08 06:40:38;;;;;;;1.08;0.40;;;3.30;99.90;;;;;;4923601;29;20083;-85
2022/01/08 06:43:05;;;;;;;0.88;0.35;;;3.20;99.90;;;;;;4946990;29;20043;-87
2022/01/08 06:45:36;;;;;;;0.52;0.40;;;3.10;99.90;;;;;;4930997;29;20083;-83
2022/01/08 06:48:08;;;;;;;1.25;0.40;;;3.10;99.90;;;;;;4946523;29;20062;-80
2022/01/08 06:50:53;;;;;;;0.98;0.40;;;3.00;99.90;;;;;;4947467;29;20089;-80
2022/01/08 06:53:20;;;;;;;1.08;0.40;;;3.00;99.90;;;;;;4956446;29;20087;-80
2022/01/08 06:55:48;;;;;;;1.20;0.40;;;2.90;99.90;;;;;;4952217;29;20052;-80
2022/01/08 06:58:16;;;;;;;1.63;0.60;;;2.90;99.90;;;;;;4948388;29;20094;-79
2022/01/08 07:00:43;;;;;;;1.30;0.57;;;2.90;99.90;;;;;;4963118;28;20106;-79
2022/01/08 07:03:15;;;;;;;0.95;0.40;;;2.80;99.90;;;;;;4945967;29;20094;-81
2022/01/08 07:05:42;;;;;;;1.73;0.80;;;2.80;99.90;;;;;;4955182;29;20107;-83
2022/01/08 07:08:12;;;;;;;1.83;0.68;;;2.80;99.90;;;;;;4952936;29;20078;-83
2022/01/08 07:10:39;;;;;;;2.33;0.70;;;2.70;99.90;;;;;;4943117;29;20054;-82
2022/01/08 07:13:07;;;;;;;1.90;0.70;;;2.70;99.90;;;;;;4957573;29;20074;-81
2022/01/08 07:15:34;;;;;;;2.50;1.00;;;2.70;99.90;;;;;;4924865;29;20107;-82
2022/01/08 07:18:01;;;;;;;1.58;0.60;;;2.70;99.90;;;;;;4948590;29;20136;-85
2022/01/08 07:20:33;;;;;;;2.28;0.90;;;2.60;99.90;;;;;;4942983;29;20079;-80
2022/01/08 07:23:02;;;;;;;1.73;0.82;;;2.60;99.90;;;;;;4918556;29;20056;-85
2022/01/08 07:25:30;;;;;;;3.03;0.70;;;2.60;99.90;;;;;;4955241;29;20520;-81
2022/01/08 07:27:58;;;;;;;1.55;0.70;;;2.60;99.90;;;;;;4961244;29;20066;-82
2022/01/08 07:30:31;;;;;;;1.95;0.80;;;2.60;99.90;;;;;;4951421;29;20082;-82
2022/01/08 07:33:01;;;;;;;2.75;0.80;;;2.60;99.90;;;;;;4951655;29;20051;-81
2022/01/08 07:35:29;;;;;;;1.83;0.70;;;2.60;99.90;;;;;;4954107;29;20450;-84
2022/01/08 07:37:57;;;;;;;1.73;0.70;;;2.60;99.90;;;;;;4952379;29;20139;-81
2022/01/08 07:40:25;;;;;;;3.00;0.82;;;2.60;99.90;;;;;;4953395;28;20422;-88
2022/01/08 07:42:53;;;;;;;2.00;0.80;;;2.60;99.90;;;;;;4945592;29;20095;-89
2022/01/08 07:45:23;;;;;;;2.17;0.80;;;2.50;99.90;;;;;;4944743;29;20079;-88
2022/01/08 07:47:51;;;;;;;3.28;0.90;;;2.60;99.90;;;;;;4944347;29;20056;-91
2022/01/08 07:50:19;;;;;;;2.60;1.10;;;2.60;99.90;;;;;;4943697;29;20062;-93
2022/01/08 07:52:49;;;;;;;2.63;0.90;;;2.50;99.90;;;;;;4955090;28;20054;-93
2022/01/08 07:55:16;;;;;;;2.35;0.90;;;2.60;99.90;;;;;;4953936;29;20044;-93
2022/01/08 07:57:43;;;;;;;2.60;1.00;;;2.60;99.90;;;;;;4942588;29;20753;-92
2022/01/08 08:00:12;;;;;;;2.83;0.90;;;2.60;99.90;;;;;;4942081;29;20504;-92
2022/01/08 08:02:40;;;;;;;3.38;1.00;;;2.60;99.90;;;;;;4944854;28;20091;-85
2022/01/08 08:05:08;;;;;;;3.72;1.13;;;2.60;99.90;;;;;;4928350;29;20126;-88
2022/01/08 08:07:37;;;;;;;3.17;1.17;;;2.60;99.90;;;;;;4943188;29;20071;-93
2022/01/08 08:10:10;;;;;;;3.67;1.23;;;2.60;99.90;;;;;;4901866;29;20107;-89
2022/01/08 08:12:40;;;;;;;5.25;1.60;;;2.60;99.90;;;;;;4951720;29;20061;-85
2022/01/08 08:15:12;;;;;;;2.72;1.10;;;2.70;99.90;;;;;;4945777;29;20075;-85
2022/01/08 08:17:41;;;;;;;2.72;1.13;;;2.60;99.90;;;;;;4945041;29;20083;-84
2022/01/08 08:20:10;;;;;;;3.47;1.35;;;2.60;99.90;;;;;;4947695;29;20086;-91
2022/01/08 08:22:37;;;;;;;3.90;1.38;;;2.70;99.90;;;;;;4930633;29;20047;-81
2022/01/08 08:25:10;;;;;;;4.90;1.50;;;2.70;99.90;;;;;;4935141;29;20138;-89
2022/01/08 08:27:37;;;;;;;3.47;1.30;;;2.70;99.90;;;;;;4934775;29;20054;-90
2022/01/08 08:30:05;;;;;;;4.13;1.70;;;2.70;99.90;;;;;;4942911;29;20584;-83
2022/01/08 08:32:32;;;;;;;4.90;1.52;;;2.60;99.90;;;;;;4944515;29;20150;-86
2022/01/08 08:35:00;;;;;;;4.82;1.40;;;2.70;99.90;;;;;;4940274;29;20564;-83
2022/01/08 08:37:27;;;;;;;4.35;1.70;;;2.70;99.90;;;;;;4936656;29;20054;-83
2022/01/08 08:39:54;;;;;;;3.72;1.58;;;2.70;99.90;;;;;;4943468;28;20039;-82
2022/01/08 08:42:23;;;;;;;3.88;1.55;;;2.80;99.90;;;;;;4932290;29;20138;-89
2022/01/08 08:44:50;;;;;;;3.95;1.35;;;2.80;99.90;;;;;;4929980;29;20052;-88
2022/01/08 08:47:17;;;;;;;4.20;1.60;;;2.80;99.90;;;;;;4930949;29;20132;-82
2022/01/08 08:52:30;;;;;;;3.22;1.40;;;2.80;99.90;;;;;;4933703;29;20052;-84
2022/01/08 08:54:57;;;;;;;3.35;1.20;;;2.80;99.90;;;;;;4936481;29;20127;-81
2022/01/08 08:57:26;;;;;;;3.97;1.20;;;2.80;99.90;;;;;;4940867;29;20569;-80
2022/01/08 08:59:55;;;;;;;2.60;1.15;;;2.80;99.90;;;;;;4938907;29;20111;-79
2022/01/08 09:02:23;;;;;;;3.65;1.20;;;2.80;99.90;;;;;;4924715;29;20151;-79
2022/01/08 09:04:52;;;;;;;2.50;1.02;;;2.80;99.90;;;;;;4923618;29;20063;-80
2022/01/08 09:07:21;;;;;;;2.75;1.00;;;2.90;99.90;;;;;;4940828;29;20071;-79
2022/01/08 09:09:50;;;;;;;2.75;1.20;;;2.90;99.90;;;;;;4942848;29;20089;-80
2022/01/08 09:12:17;;;;;;;2.03;1.00;;;2.80;99.90;;;;;;4941397;29;20078;-79
2022/01/08 09:14:46;;;;;;;2.95;1.38;;;2.80;99.90;;;;;;4939953;29;20107;-79
2022/01/08 09:17:16;;;;;;;3.08;1.10;;;2.80;99.90;;;;;;4941114;29;20075;-83
2022/01/08 09:19:44;;;;;;;2.72;0.90;;;2.80;99.90;;;;;;4942207;29;20064;-80
2022/01/08 09:22:15;;;;;;;3.53;1.17;;;2.80;99.90;;;;;;4941131;29;20134;-81
2022/01/08 09:24:49;;;;;;;3.25;1.30;;;2.80;99.90;;;;;;4931949;29;20048;-94
2022/01/08 09:30:00;;;;;;;2.53;1.20;;;2.90;99.90;;;;;;4925405;29;20300;-77
2022/01/08 09:32:31;;;;;;;2.67;1.10;;;2.90;99.90;;;;;;4924242;29;20106;-82
2022/01/08 09:34:58;;;;;;;3.53;1.30;;;3.00;99.90;;;;;;4936239;29;20123;-79
2022/01/08 09:37:26;;;;;;;3.75;1.30;;;3.00;99.90;;;;;;4937154;29;20079;-82
2022/01/08 09:39:54;;;;;;;4.40;1.63;;;3.10;99.90;;;;;;4932380;29;20099;-81
2022/01/08 09:42:21;;;;;;;3.15;1.30;;;3.10;99.90;;;;;;4920374;29;20132;-79
2022/01/08 09:44:48;;;;;;;4.47;1.83;;;3.10;99.90;;;;;;4927885;29;20099;-83
2022/01/08 09:47:18;;;;;;;4.07;1.73;;;3.20;99.90;;;;;;4927648;29;20721;-82
2022/01/08 09:49:45;;;;;;;3.50;1.60;;;3.20;99.90;;;;;;4935365;29;20583;-80
2022/01/08 09:52:14;;;;;;;4.53;1.48;;;3.30;99.90;;;;;;4927942;29;20103;-79
2022/01/08 09:54:41;;;;;;;4.40;1.42;;;3.30;99.90;;;;;;4918582;29;20131;-78
2022/01/08 09:57:09;;;;;;;2.80;1.30;;;3.30;99.90;;;;;;4918860;29;20135;-79
2022/01/08 09:59:36;;;;;;;3.58;1.40;;;3.30;99.90;;;;;;4918300;29;20083;-82
2022/01/08 10:02:04;;;;;;;4.72;1.70;;;3.30;99.90;;;;;;4917529;29;20136;-79
2022/01/08 10:04:35;;;;;;;4.22;1.60;;;3.40;99.90;;;;;;4917975;29;20143;-81
2022/01/08 10:07:24;;;;;;;3.70;1.17;;;3.50;99.90;;;;;;4917161;29;20413;-81
2022/01/08 10:10:12;;;;;;;4.47;1.27;;;3.50;99.90;;;;;;4918738;29;20383;-87
2022/01/08 10:12:52;;;;;;;3.80;1.30;;;3.50;99.90;;;;;;4929023;29;20048;-78
2022/01/08 10:18:12;;;;;;;3.60;1.40;;;3.40;99.90;;;;;;4938784;29;20114;-82
2022/01/08 10:20:43;;;;;;;3.00;1.30;;;3.40;99.90;;;;;;4934176;29;20132;-80
2022/01/08 10:23:18;;;;;;;4.07;1.55;;;3.40;99.90;;;;;;4926419;29;20060;-81
2022/01/08 10:26:03;;;;;;;4.60;1.30;;;3.30;99.90;;;;;;4938530;29;20468;-92
2022/01/08 10:28:36;;;;;;;3.17;1.30;;;3.40;99.90;;;;;;4932315;29;20078;-81
2022/01/08 10:31:17;;;;;;;4.55;1.60;;;3.30;99.90;;;;;;4922867;29;20157;-80
2022/01/08 10:33:48;;;;;;;2.92;1.30;;;3.40;99.90;;;;;;4927176;29;20126;-77
2022/01/08 10:36:23;;;;;;;3.90;1.48;;;3.30;99.90;;;;;;4918927;29;20056;-74
2022/01/08 10:38:55;;;;;;;4.80;1.45;;;3.40;99.90;;;;;;4917874;29;20055;-77
2022/01/08 10:41:24;;;;;;;4.20;1.45;;;3.40;99.90;;;;;;4917868;29;20054;-81
2022/01/08 10:44:11;;;;;;;5.30;1.55;;;3.40;99.90;;;;;;4922470;29;20135;-80
2022/01/08 10:46:41;;;;;;;4.35;1.48;;;3.40;99.90;;;;;;4929012;29;20135;-90
2022/01/08 10:49:09;;;;;;;3.88;1.33;;;3.50;99.90;;;;;;4936609;29;20079;-81
2022/01/08 10:51:40;;;;;;;4.70;1.30;;;3.50;99.90;;;;;;4936692;29;20082;-85
2022/01/08 10:54:11;;;;;;;3.80;1.80;;;3.50;99.20;;;;;;4937510;29;20056;-81
2022/01/08 10:56:42;;;;;;;3.17;1.30;;;3.50;99.00;;;;;;4940537;29;20147;-94
2022/01/08 10:59:18;;;;;;;3.78;1.40;;;3.50;99.00;;;;;;4909089;29;20491;-81
2022/01/08 11:01:59;;;;;;;4.22;1.75;;;3.40;98.30;;;;;;4933463;29;20055;-80
2022/01/08 11:04:40;;;;;;;3.72;1.00;;;3.40;98.20;;;;;;4925126;29;20044;-88
2022/01/08 11:07:11;;;;;;;4.18;1.20;;;3.40;98.30;;;;;;4936696;29;20052;-81
2022/01/08 11:09:42;;;;;;;4.70;1.27;;;3.40;97.40;;;;;;4924774;29;20135;-81
2022/01/08 11:12:14;;;;;;;3.53;1.20;;;3.40;97.60;;;;;;4925919;29;20082;-80
2022/01/08 11:23:22;;;;;;;4.22;1.10;;;3.70;97.80;;;;;;4977124;28;20102;-86
2022/01/08 11:26:00;;;;;;;3.28;1.00;;;3.90;97.30;;;;;;4973427;29;20054;-88
2022/01/08 11:28:34;;;;;;;4.30;1.45;;;4.00;95.90;;;;;;4974860;29;20059;-89
2022/01/08 11:31:03;;;;;;;3.15;0.98;;;4.00;95.50;;;;;;4964473;29;20059;-86
2022/01/08 11:33:35;;;;;;;3.92;1.00;;;4.00;95.70;;;;;;4967491;28;20054;-80
2022/01/08 11:36:02;;;;;;;5.45;1.10;;;4.00;94.90;;;;;;4951927;29;20079;-80
2022/01/08 11:38:31;;;;;;;5.78;1.20;;;4.00;94.80;;;;;;4956186;28;20133;-82
2022/01/08 11:41:00;;;;;;;7.72;1.40;;;4.00;94.90;;;;;;4943285;28;20083;-80
2022/01/08 11:43:29;;;;;;;3.90;1.08;;;3.90;94.60;;;;;;4957794;28;20083;-82
2022/01/08 11:46:00;;;;;;;4.95;1.67;;;3.90;94.90;;;;;;4959053;29;20138;-82
2022/01/08 11:48:39;;;;;;;5.03;1.20;;;3.90;95.20;;;;;;4957555;29;20481;-82
2022/01/08 11:51:08;;;;;;;5.10;1.60;;;3.90;95.30;;;;;;4953128;29;20086;-82
2022/01/08 11:53:48;;;;;;;4.10;1.15;;;3.90;95.70;;;;;;4938740;29;20054;-82
2022/01/08 11:56:24;;;;;;;4.45;1.30;;;3.90;95.30;;;;;;4939279;29;20134;-82
2022/01/08 11:59:06;;;;;;;6.70;1.58;;;3.90;95.50;;;;;;4937472;29;20485;-82
2022/01/08 12:01:35;;;;;;;5.75;1.20;;;3.90;96.00;;;;;;4937341;29;20138;-81
2022/01/08 12:04:04;;;;;;;3.15;1.40;;;3.90;95.70;;;;;;4936986;29;20406;-80
2022/01/08 12:06:39;;;;;;;4.72;1.25;;;4.00;95.50;;;;;;4938798;29;20083;-81
2022/01/08 12:09:22;;;;;;;3.20;1.20;;;4.00;95.70;;;;;;4937956;29;20048;-83
2022/01/08 12:12:00;;;;;;;4.78;1.50;;;4.00;95.90;;;;;;4936871;29;20139;-82
2022/01/08 12:14:29;;;;;;;2.90;1.20;;;4.20;96.20;;;;;;4936938;29;20438;-82
2022/01/08 12:16:58;;;;;;;4.82;1.27;;;4.20;95.70;;;;;;4936945;29;20508;-83
2022/01/08 12:19:35;;;;;;;4.63;1.30;;;4.20;95.80;;;;;;4937446;29;20530;-82
2022/01/08 12:22:36;;;;;;;4.82;1.25;;;4.20;95.80;;;;;;4936797;29;20143;-83
2022/01/08 12:25:05;;;;;;;6.28;1.15;;;4.20;95.80;;;;;;4936734;29;20059;-82
2022/01/08 12:27:46;;;;;;;2.60;0.88;;;4.20;96.00;;;;;;4937152;29;20134;-83
2022/01/08 12:30:41;;;;;;;2.50;0.90;;;4.20;95.60;;;;;;4937699;29;20569;-82
2022/01/08 12:33:20;;;;;;;5.10;1.17;;;4.20;96.00;;;;;;4903348;29;20134;-81
2022/01/08 12:35:50;;;;;;;9.30;3.50;;;4.20;96.00;;;;;;4936377;29;20058;-81
2022/01/08 12:38:31;;;;;;;6.22;1.70;;;4.30;96.00;;;;;;4937153;29;20052;-82
2022/01/08 12:40:59;;;;;;;3.85;1.40;;;4.30;96.10;;;;;;4937203;29;20051;-82
2022/01/08 12:43:35;;;;;;;3.20;1.25;;;4.30;96.40;;;;;;4936408;29;20135;-82
2022/01/08 12:46:21;;;;;;;5.65;1.30;;;4.40;96.50;;;;;;4936257;29;20410;-82
2022/01/08 12:49:16;;;;;;;3.17;1.08;;;4.50;96.10;;;;;;4935985;29;20048;-81
2022/01/08 12:52:07;;;;;;;3.00;1.40;;;4.70;95.70;;;;;;4936315;29;20058;-81
2022/01/08 12:54:36;;;;;;;5.15;1.50;;;4.70;95.50;;;;;;4937878;29;20501;-82
2022/01/08 12:57:05;;;;;;;3.80;1.40;;;4.80;95.30;;;;;;4942782;29;20628;-82
2022/01/08 12:59:37;;;;;;;3.38;1.20;;;5.00;94.90;;;;;;4944167;29;20108;-81
2022/01/08 13:02:08;;;;;;;3.03;1.10;;;5.10;94.70;;;;;;4944707;29;20083;-81
2022/01/08 13:04:38;;;;;;;4.05;1.00;;;5.30;95.00;;;;;;4949655;29;20127;-82
2022/01/08 13:07:05;;;;;;;4.25;1.30;;;5.70;95.30;;;;;;4936152;29;20058;-81
2022/01/08 13:09:32;;;;;;;3.58;1.20;;;6.20;94.20;;;;;;4935675;29;20054;-80
2022/01/08 13:12:01;;;;;;;3.78;1.30;;;6.80;94.00;;;;;;4935494;29;20143;-81
2022/01/08 13:14:30;;;;;;;3.95;1.30;;;7.50;92.00;;;;;;4940830;29;20051;-80
2022/01/08 13:16:59;;;;;;;4.97;1.42;;;8.10;90.00;;;;;;4954473;28;20493;-81
2022/01/08 13:19:29;;;;;;;4.13;1.17;;;8.30;84.50;;;;;;4946208;28;20051;-81
2022/01/08 13:21:58;;;;;;;3.25;1.10;;;8.00;80.10;;;;;;4946160;29;20135;-82
2022/01/08 13:24:28;;;;;;;3.47;1.17;;;7.80;81.00;;;;;;4935746;29;20146;-81
2022/01/08 13:26:58;;;;;;;4.35;1.30;;;7.60;81.60;;;;;;4935907;29;20090;-82
2022/01/08 13:29:29;;;;;;;3.45;1.20;;;7.40;82.60;;;;;;4944810;28;20055;-79
2022/01/08 13:31:58;;;;;;;5.72;1.55;;;7.20;82.00;;;;;;4949524;29;20130;-80
2022/01/08 13:34:30;;;;;;;5.25;1.23;;;7.10;82.10;;;;;;4953915;28;20134;-81
2022/01/08 13:37:05;;;;;;;22.45;9.57;;;6.80;83.00;;;;;;4954601;29;20079;-80
2022/01/08 13:39:38;;;;;;;4.55;1.80;;;6.60;84.40;;;;;;4954449;29;20073;-82
2022/01/08 13:42:14;;;;;;;3.75;1.20;;;6.40;85.30;;;;;;4954336;29;20058;-82
2022/01/08 13:44:47;;;;;;;3.45;1.17;;;6.20;85.40;;;;;;4949299;29;20044;-81
2022/01/08 13:47:28;;;;;;;3.22;1.08;;;6.10;86.20;;;;;;4946506;29;20133;-81
2022/01/08 13:49:59;;;;;;;2.50;1.10;;;5.90;86.60;;;;;;4940479;29;20591;-79
2022/01/08 13:52:35;;;;;;;2.95;1.00;;;5.80;87.50;;;;;;4954502;29;20051;-78
2022/01/08 13:55:20;;;;;;;4.00;1.20;;;5.80;87.70;;;;;;4951468;29;20130;-86
2022/01/08 13:57:53;;;;;;;3.17;1.20;;;5.70;87.60;;;;;;4942779;28;20094;-86
2022/01/08 14:00:26;;;;;;;2.55;1.10;;;5.70;87.80;;;;;;4923305;29;20087;-85
2022/01/08 14:02:55;;;;;;;3.65;1.10;;;5.70;87.80;;;;;;4955574;29;20133;-85
2022/01/08 14:05:24;;;;;;;4.65;1.70;;;5.70;87.10;;;;;;4939025;29;20413;-86
2022/01/08 14:07:51;;;;;;;7.78;3.30;;;5.60;87.30;;;;;;4956043;28;20105;-86
2022/01/08 14:10:20;;;;;;;4.72;1.45;;;5.60;87.70;;;;;;4956178;29;20168;-87
2022/01/08 14:13:08;;;;;;;4.35;1.20;;;5.50;88.40;;;;;;4954771;28;20137;-87
2022/01/08 14:15:38;;;;;;;2.53;1.08;;;5.50;88.50;;;;;;4946178;29;20118;-85
2022/01/08 14:18:17;;;;;;;3.90;1.10;;;5.40;88.90;;;;;;4968710;29;20051;-85
2022/01/08 14:20:45;;;;;;;2.63;1.08;;;5.40;89.30;;;;;;4966707;29;20501;-87
2022/01/08 14:23:19;;;;;;;3.05;1.00;;;5.40;89.30;;;;;;4968341;28;20043;-87
2022/01/08 14:25:51;;;;;;;2.65;1.00;;;5.30;89.20;;;;;;4960911;28;20074;-84
2022/01/08 14:28:27;;;;;;;2.45;0.90;;;5.20;89.30;;;;;;4986493;28;20047;-85
2022/01/08 14:31:15;;;;;;;3.00;1.00;;;5.10;89.60;;;;;;4930509;29;20056;-83
2022/01/08 14:34:06;;;;;;;3.35;1.00;;;5.10;90.20;;;;;;4940777;28;20039;-87
2022/01/08 14:36:46;;;;;;;3.30;1.20;;;5.10;90.20;;;;;;4965622;28;20047;-81
2022/01/08 14:39:15;;;;;;;2.40;0.80;;;5.10;90.20;;;;;;4941240;29;20135;-80
2022/01/08 14:41:45;;;;;;;3.97;1.10;;;5.10;90.30;;;;;;4957986;28;20527;-81
2022/01/08 14:44:13;;;;;;;3.65;1.20;;;5.20;90.50;;;;;;4957709;29;20052;-82
2022/01/08 14:46:48;;;;;;;2.50;1.00;;;5.20;90.60;;;;;;4956737;28;20074;-82
2022/01/08 14:49:15;;;;;;;4.28;1.17;;;5.30;90.60;;;;;;4953545;29;20062;-81
2022/01/08 14:51:43;;;;;;;3.03;1.17;;;5.40;90.60;;;;;;4955778;28;20127;-81
2022/01/08 14:54:10;;;;;;;3.45;1.20;;;5.40;90.40;;;;;;4949831;28;20126;-81
2022/01/08 14:56:37;;;;;;;3.05;1.10;;;5.40;90.40;;;;;;4939291;29;20086;-81
2022/01/08 14:59:05;;;;;;;3.42;1.05;;;5.40;90.40;;;;;;4952599;29;20051;-83
2022/01/08 15:01:33;;;;;;;4.38;1.50;;;5.40;90.20;;;;;;4957714;28;20077;-82
2022/01/08 15:04:02;;;;;;;3.38;1.20;;;5.30;90.20;;;;;;4956945;29;20393;-80
2022/01/08 15:06:29;;;;;;;3.80;1.40;;;5.30;90.10;;;;;;4953143;28;20048;-81
2022/01/08 15:08:56;;;;;;;3.58;1.20;;;5.20;90.20;;;;;;4947739;29;20130;-81
2022/01/08 15:11:23;;;;;;;3.25;1.30;;;5.10;90.20;;;;;;4938229;29;20043;-82
2022/01/08 15:13:50;;;;;;;4.55;1.30;;;5.10;90.20;;;;;;4947486;29;20075;-82
2022/01/08 15:16:18;;;;;;;3.28;1.38;;;5.10;90.20;;;;;;4938341;29;20139;-80
2022/01/08 15:18:45;;;;;;;4.13;1.45;;;5.10;90.10;;;;;;4947474;29;20054;-82
2022/01/08 15:21:14;;;;;;;3.53;1.40;;;5.00;90.20;;;;;;4957034;29;20055;-86
2022/01/08 15:23:41;;;;;;;3.30;1.23;;;5.10;90.50;;;;;;4955712;29;20131;-81
2022/01/08 15:26:10;;;;;;;3.20;1.30;;;5.30;90.50;;;;;;4940007;29;20091;-82
2022/01/08 15:28:37;;;;;;;3.95;1.50;;;5.30;90.00;;;;;;4937773;29;20505;-82
2022/01/08 15:31:04;;;;;;;3.25;1.25;;;5.40;89.70;;;;;;4937900;29;20058;-83
2022/01/08 15:33:31;;;;;;;4.10;1.50;;;5.30;88.90;;;;;;4938110;29;20067;-82
2022/01/08 15:35:58;;;;;;;4.20;1.60;;;5.30;88.40;;;;;;4937531;29;20577;-82
2022/01/08 15:38:27;;;;;;;2.72;1.15;;;5.30;88.40;;;;;;4943815;29;20130;-82
2022/01/08 15:40:54;;;;;;;2.95;1.17;;;5.20;88.70;;;;;;4950258;28;20058;-82
2022/01/08 15:43:21;;;;;;;3.90;1.20;;;5.20;88.10;;;;;;4948810;28;20548;-81
2022/01/08 15:45:48;;;;;;;2.80;1.10;;;5.10;88.20;;;;;;4946315;28;20138;-83
2022/01/08 15:48:15;;;;;;;3.10;1.30;;;5.10;88.60;;;;;;4956431;29;20130;-82
2022/01/08 15:50:42;;;;;;;3.00;1.10;;;5.10;88.60;;;;;;4956845;28;20130;-81
2022/01/08 15:53:09;;;;;;;3.42;1.40;;;5.00;88.40;;;;;;4952673;29;20517;-81
2022/01/08 15:55:38;;;;;;;3.60;1.30;;;5.00;88.50;;;;;;4937707;29;20139;-81
2022/01/08 15:58:05;;;;;;;2.70;1.08;;;5.00;88.90;;;;;;4937351;29;20561;-80
2022/01/08 16:00:32;;;;;;;2.88;1.20;;;5.00;88.50;;;;;;4937225;29;20056;-80
2022/01/08 16:02:59;;;;;;;2.78;1.20;;;5.00;88.90;;;;;;4937399;29;20082;-80
2022/01/08 16:05:29;;;;;;;2.78;1.10;;;5.00;88.50;;;;;;4937256;29;20131;-83
2022/01/08 16:07:59;;;;;;;3.53;1.35;;;5.00;88.40;;;;;;4941092;29;20043;-81
2022/01/08 16:10:27;;;;;;;2.95;1.17;;;5.00;89.00;;;;;;4954763;29;20055;-82
2022/01/08 16:12:56;;;;;;;4.32;1.17;;;5.00;88.90;;;;;;4951194;28;20130;-84
2022/01/08 16:15:23;;;;;;;3.13;1.13;;;5.00;88.70;;;;;;4937382;29;20142;-83
2022/01/08 16:17:50;;;;;;;2.13;0.90;;;5.00;89.00;;;;;;4936989;29;20131;-80
2022/01/08 16:20:18;;;;;;;2.78;1.30;;;5.00;88.50;;;;;;4936670;29;20136;-82
2022/01/08 16:22:45;;;;;;;2.97;1.10;;;5.00;88.50;;;;;;4936808;29;20254;-81
2022/01/08 16:25:13;;;;;;;5.03;1.20;;;5.00;88.70;;;;;;4937017;29;20083;-81
2022/01/08 16:27:40;;;;;;;5.05;1.27;;;5.00;88.70;;;;;;4937820;29;20130;-80
2022/01/08 16:30:10;;;;;;;4.00;1.20;;;5.00;89.00;;;;;;4936776;29;20134;-81
2022/01/08 16:32:37;;;;;;;3.00;1.30;;;5.00;89.30;;;;;;4952213;28;20055;-82
2022/01/08 16:35:05;;;;;;;4.68;1.70;;;5.00;89.30;;;;;;4955462;29;20086;-82
2022/01/08 16:37:32;;;;;;;5.63;2.10;;;5.00;89.80;;;;;;4954227;29;20061;-82
2022/01/08 16:40:00;;;;;;;4.57;2.03;;;5.00;90.30;;;;;;4955899;29;20150;-82
2022/01/08 16:42:28;;;;;;;4.30;1.67;;;5.00;90.10;;;;;;4955803;29;20478;-82
2022/01/08 16:44:55;;;;;;;6.75;2.47;;;4.90;90.20;;;;;;4955664;29;20079;-80
2022/01/08 16:47:24;;;;;;;5.32;2.40;;;4.90;90.40;;;;;;4950606;29;20127;-81
2022/01/08 16:49:52;;;;;;;4.55;2.08;;;4.90;90.50;;;;;;4935585;29;20122;-82
2022/01/08 16:52:19;;;;;;;4.45;1.65;;;4.90;90.20;;;;;;4932601;29;20061;-82
2022/01/08 16:54:46;;;;;;;3.92;1.52;;;4.90;89.10;;;;;;4935441;29;20126;-82
2022/01/08 16:57:13;;;;;;;2.80;1.27;;;4.90;88.90;;;;;;4942744;28;20562;-81
2022/01/08 16:59:40;;;;;;;3.65;1.63;;;4.90;88.80;;;;;;4931682;29;20056;-82
2022/01/08 17:02:08;;;;;;;3.88;1.45;;;4.90;88.50;;;;;;4932702;29;20103;-83
2022/01/08 17:04:36;;;;;;;4.93;1.70;;;4.90;88.30;;;;;;4932582;29;20158;-81
2022/01/08 17:07:04;;;;;;;4.18;1.95;;;4.90;87.60;;;;;;4933669;29;20565;-81
2022/01/08 17:09:32;;;;;;;3.40;1.50;;;4.90;87.20;;;;;;4932263;29;20048;-81
2022/01/08 17:12:00;;;;;;;3.63;1.42;;;4.90;87.30;;;;;;4938051;29;20055;-81
2022/01/08 17:14:28;;;;;;;3.58;1.33;;;4.90;87.20;;;;;;4950903;29;20739;-78
2022/01/08 17:17:01;;;;;;;2.95;1.17;;;4.90;86.60;;;;;;4951984;29;20043;-80
2022/01/08 17:19:28;;;;;;;3.55;1.33;;;4.90;86.70;;;;;;4951474;29;20153;-79
2022/01/08 17:21:57;;;;;;;3.05;1.30;;;4.90;86.30;;;;;;4951179;29;20051;-78
2022/01/08 17:24:24;;;;;;;3.63;1.30;;;4.90;86.00;;;;;;4949637;29;20050;-79
2022/01/08 17:26:52;;;;;;;3.13;1.35;;;4.90;86.10;;;;;;4950833;28;20133;-77
2022/01/08 17:29:22;;;;;;;4.03;1.30;;;4.90;85.50;;;;;;4951627;28;20074;-79
2022/01/08 17:31:50;;;;;;;4.78;1.33;;;4.80;86.60;;;;;;4945290;28;20535;-77
2022/01/08 17:34:17;;;;;;;2.83;1.10;;;4.80;84.40;;;;;;4942462;29;20381;-80
2022/01/08 17:36:44;;;;;;;3.17;1.17;;;4.80;84.10;;;;;;4941286;29;20079;-78
2022/01/08 17:39:12;;;;;;;5.47;1.27;;;4.80;84.10;;;;;;4950772;28;20051;-82
2022/01/08 17:41:39;;;;;;;3.55;1.17;;;4.80;84.90;;;;;;4952047;28;20461;-79
2022/01/08 17:44:07;;;;;;;4.13;1.15;;;4.80;86.10;;;;;;4951399;28;20047;-76
2022/01/08 17:46:34;;;;;;;3.35;1.00;;;4.90;86.00;;;;;;4944262;29;20051;-79
2022/01/08 17:49:03;;;;;;;2.58;1.00;;;4.90;85.50;;;;;;4951024;29;20126;-79
2022/01/08 17:51:30;;;;;;;3.35;1.20;;;4.90;84.70;;;;;;4951298;28;20080;-79
2022/01/08 17:53:57;;;;;;;3.10;1.02;;;4.90;84.50;;;;;;4941956;29;20134;-78
2022/01/08 17:56:26;;;;;;;3.30;0.90;;;4.90;83.90;;;;;;4932462;29;20055;-79
2022/01/08 17:58:53;;;;;;;3.65;1.05;;;4.90;83.40;;;;;;4946520;29;20130;-78
2022/01/08 18:01:21;;;;;;;5.10;1.98;;;4.90;83.50;;;;;;4949741;28;20135;-78
2022/01/08 18:03:48;;;;;;;5.47;1.40;;;4.90;83.20;;;;;;4950478;29;20130;-78
2022/01/08 18:06:15;;;;;;;3.90;1.10;;;5.00;82.00;;;;;;4947428;29;20134;-78
2022/01/08 18:08:42;;;;;;;3.13;1.08;;;4.90;82.60;;;;;;4946788;29;20111;-78
2022/01/08 18:11:09;;;;;;;4.00;1.10;;;4.90;83.10;;;;;;4948781;28;20053;-78
2022/01/08 18:13:39;;;;;;;3.40;0.98;;;4.90;83.30;;;;;;4947009;28;20155;-79
2022/01/08 18:16:07;;;;;;;2.35;0.90;;;4.80;83.30;;;;;;4951712;28;20051;-79
2022/01/08 18:18:34;;;;;;;3.20;0.95;;;4.80;83.60;;;;;;4945177;28;20082;-78
2022/01/08 18:21:01;;;;;;;3.35;1.20;;;4.80;83.40;;;;;;4944543;29;20154;-77
2022/01/08 18:23:28;;;;;;;2.33;0.90;;;4.80;83.30;;;;;;4954336;29;20044;-76
2022/01/08 18:25:55;;;;;;;4.25;1.08;;;4.80;83.30;;;;;;4954888;29;20051;-77
2022/01/08 18:28:22;;;;;;;2.65;0.80;;;4.80;83.20;;;;;;4952506;29;20043;-77
2022/01/08 18:30:51;;;;;;;3.03;0.98;;;4.80;84.10;;;;;;4946271;29;20048;-77
2022/01/08 18:33:18;;;;;;;2.40;0.88;;;4.80;83.60;;;;;;4936344;29;20055;-79
2022/01/08 18:35:45;;;;;;;2.47;0.85;;;4.80;83.80;;;;;;4954617;28;20103;-75
2022/01/08 18:38:13;;;;;;;4.32;1.00;;;4.80;83.90;;;;;;4955253;29;20154;-77
2022/01/08 18:40:40;;;;;;;2.80;0.90;;;4.80;84.20;;;;;;4952096;28;20134;-77
2022/01/08 18:43:09;;;;;;;3.13;0.90;;;4.80;84.60;;;;;;4945551;28;20469;-79
2022/01/08 18:45:37;;;;;;;3.97;1.45;;;4.80;84.90;;;;;;4940208;28;20044;-79
2022/01/08 18:48:08;;;;;;;3.88;1.40;;;4.80;85.30;;;;;;4934854;29;20420;-80
2022/01/08 18:50:36;;;;;;;3.42;1.30;;;4.80;85.70;;;;;;4941765;29;20051;-79
2022/01/08 18:53:03;;;;;;;3.17;1.15;;;4.80;86.30;;;;;;4951779;28;20052;-77
2022/01/08 18:55:31;;;;;;;3.40;1.20;;;4.80;86.90;;;;;;4950698;28;20527;-80
2022/01/08 18:57:58;;;;;;;3.47;1.10;;;4.70;87.60;;;;;;4954110;28;20126;-78
2022/01/08 19:00:25;;;;;;;4.93;2.05;;;4.70;88.40;;;;;;4957226;28;20055;-79
2022/01/08 19:02:52;;;;;;;3.67;1.60;;;4.70;89.00;;;;;;4954422;28;20449;-77
2022/01/08 19:05:20;;;;;;;3.50;1.30;;;4.70;89.30;;;;;;4953617;28;20039;-77
2022/01/08 19:07:48;;;;;;;3.58;1.40;;;4.70;89.90;;;;;;4948215;28;20039;-80
2022/01/08 19:10:16;;;;;;;3.95;1.60;;;4.70;90.00;;;;;;4934341;29;20059;-77
2022/01/08 19:12:43;;;;;;;2.97;1.10;;;4.70;90.20;;;;;;4935241;29;20051;-80
2022/01/08 19:15:12;;;;;;;2.80;1.20;;;4.70;90.30;;;;;;4935647;29;20075;-78
2022/01/08 19:17:39;;;;;;;3.35;1.00;;;4.70;90.50;;;;;;4953286;28;20054;-78
2022/01/08 19:20:08;;;;;;;3.45;1.10;;;4.70;90.70;;;;;;4953390;29;20110;-80
2022/01/08 19:22:38;;;;;;;2.60;1.10;;;4.70;90.90;;;;;;4953268;28;20047;-77
2022/01/08 19:25:06;;;;;;;2.47;1.05;;;4.70;91.10;;;;;;4943952;28;20094;-79
2022/01/08 19:27:36;;;;;;;4.10;1.20;;;4.60;91.30;;;;;;4940682;29;20044;-79
2022/01/08 19:30:09;;;;;;;3.22;1.20;;;4.60;91.60;;;;;;4952040;28;20057;-79